No particular awareness of the weather is required.    There are no Weather-warnings


Nieuwrode (Holsbeek) more information Nieuwrode (Holsbeek)


Thunder radar more information blitzortung!


Rain radar more information rain snow radar



Nearby METAR Reports

  
EBBR - Brussels International Airport, Belgium
Distance from station: W 14km
Updated: 21-10-2018 03:50
Partly Cloudy
Partly Cloudy  
 Wind from SSE
Wind: SSE 7 km/h
Temperature:  5°C
Wind Chill:  3°C
Dew Point:  4°C
Humidity:  93%
Barometer:  1030 hPa
Clouds:  Partly Cloudy
Visibility:  8 km
2018/10/21 01:50 EBBR 210150Z 16004KT 8000 NSC 05/04 Q1030 NOSIG
EBBE - Beauvechain (Bevekom), Belgium
Distance from station: SSE 17km
Updated: 21-10-2018 03:25
Mist, Clear
Mist, Clear  
 Wind from varies
Wind: varies 2 km/h
Temperature:  6°C
Dew Point:  5°C
Humidity:  93%
Barometer:  1030 hPa
Summary:  Mist
Clouds:  Clear
Visibility:  5 km
2018/10/21 01:25 EBBE 210125Z AUTO VRB01KT 4700 BR NCD 06/05 Q1030 GRN
EBDT - Schaffen, Belgium
Distance from station: ENE 29km
Updated: 21-10-2018 03:25
Mist, Clear
Mist, Clear  
 Wind from varies
Wind: varies 4 km/h
Temperature:  5°C
Dew Point:  4°C
Humidity:  93%
Barometer:  1030 hPa
Summary:  Mist
Clouds:  Clear
Visibility:  3 km
2018/10/21 01:25 EBDT 210125Z AUTO VRB02KT 3200 BR NCD 05/04 Q1030 YLO
EBAW - Antwerp/Deurne, Belgium
Distance from station: NNW 38km
Updated: 21-10-2018 03:50
Mist, Clear
Mist, Clear  
 Wind from varies
Wind: varies 4 km/h
Temperature:  4°C
Dew Point:  4°C
Humidity:  100%
Barometer:  1030 hPa
Summary:  Mist
Clouds:  Clear
Visibility:  3 km
2018/10/21 01:50 EBAW 210150Z AUTO VRB02KT 2600 BR NCD 04/04 Q1030
EBCI - Charleroi/Gosselies, Belgium
Distance from station: SSW 51km
Updated: 21-10-2018 03:50
Mist, Partly cloudy
Mist, Partly cloudy  
 Wind from NE
Wind: NE 2 km/h
Temperature:  5°C
Dew Point:  4°C
Humidity:  93%
Barometer:  1030 hPa
Summary:  Mist
Clouds:  Partly Cloudy
Visibility:  4 km
2018/10/21 01:50 EBCI 210150Z 04001KT 3500 BR NSC 05/04 Q1030 NOSIG
EBLG - Bierset/Liege, Belgium
Distance from station: ESE 60km
Updated: 21-10-2018 03:50
Mist, Partly cloudy
Mist, Partly cloudy  
 Wind from calm
Wind: Calm
Temperature:  6°C
Dew Point:  5°C
Humidity:  93%
Barometer:  1030 hPa
Summary:  Mist
Clouds:  Partly Cloudy
Visibility:  5 km
2018/10/21 01:50 EBLG 210150Z 00000KT 4800 BR NSC 06/05 Q1030 TEMPO 2500

Script developed by  Saratoga-weather.org Adapted for the template by  Weerstation Leuven

You find our weather info also at:


Het Weer Aktueel

European Weather Network

Weather Underground

AWEKAS

HAMweather, WeatherForYou, PWS Weather

Equipment we use:


Weather-station
Davis VP2 Plus

Weather-program
Weather Display

Davis VP2 Plus

Weather Display